Time;durP1;ratioP1;P1;durP2;ratioP2;P2;SDS_P1;SDS_P2;PMS_P1;PMS_P2;Temp;Humidity;BMP_temperature;BMP_pressure;BME280_temperature;BME280_humidity;BME280_pressure;Samples;Min_cycle;Max_cycle;Signal;HPM_P1;HPM_P2
2021/06/05 00:02:17;;;;;;;10.13;9.40;;;17.30;1.00;;;;;;5072092;28;23264;-86
2021/06/05 00:04:43;;;;;;;10.80;9.90;;;17.20;1.00;;;;;;5055595;28;21286;-84
2021/06/05 00:07:10;;;;;;;10.60;9.67;;;17.20;1.00;;;;;;5046803;28;20455;-84
2021/06/05 00:09:43;;;;;;;10.47;9.60;;;17.20;1.00;;;;;;5049906;28;20917;-83
2021/06/05 00:12:12;;;;;;;10.47;9.60;;;17.20;1.00;;;;;;5049490;28;20493;-82
2021/06/05 00:14:39;;;;;;;10.63;9.83;;;17.10;1.00;;;;;;5057889;28;20448;-84
2021/06/05 00:17:05;;;;;;;10.43;9.63;;;17.10;1.00;;;;;;5052498;28;20426;-84
2021/06/05 00:19:32;;;;;;;11.00;10.00;;;17.10;1.00;;;;;;5047179;28;20469;-85
2021/06/05 00:21:59;;;;;;;9.60;8.90;;;17.10;1.00;;;;;;5050976;28;20469;-85
2021/06/05 00:24:25;;;;;;;11.07;10.00;;;17.10;1.00;;;;;;5053216;28;20445;-85
2021/06/05 00:26:53;;;;;;;10.63;9.80;;;17.10;1.00;;;;;;5057326;28;20442;-85
2021/06/05 00:29:19;;;;;;;10.30;9.50;;;17.00;1.00;;;;;;5052802;28;20444;-84
2021/06/05 00:31:46;;;;;;;10.50;9.70;;;17.00;1.00;;;;;;5053678;28;20536;-85
2021/06/05 00:34:12;;;;;;;10.20;9.40;;;17.00;1.00;;;;;;5050328;28;20881;-85
2021/06/05 00:36:40;;;;;;;10.33;9.53;;;17.00;1.00;;;;;;5063859;28;20527;-85
2021/06/05 00:39:07;;;;;;;9.87;9.00;;;17.00;1.00;;;;;;5052427;28;20440;-85
2021/06/05 00:41:33;;;;;;;10.70;9.80;;;16.90;1.00;;;;;;5059469;28;20560;-85
2021/06/05 00:44:03;;;;;;;10.93;10.00;;;16.90;1.00;;;;;;5055154;28;20959;-83
2021/06/05 00:46:32;;;;;;;10.40;9.50;;;16.90;1.00;;;;;;5047704;28;20440;-83
2021/06/05 00:48:59;;;;;;;9.73;8.93;;;16.90;1.00;;;;;;5049263;28;20458;-83
2021/06/05 00:51:36;;;;;;;10.60;9.87;;;16.90;1.00;;;;;;5052654;28;20465;-84
2021/06/05 00:54:04;;;;;;;11.50;9.90;;;16.90;1.00;;;;;;5055277;28;20463;-84
2021/06/05 00:56:31;;;;;;;10.40;9.50;;;16.90;1.00;;;;;;5049882;28;20494;-85
2021/06/05 00:58:57;;;;;;;10.57;9.63;;;16.80;1.00;;;;;;5048742;28;20557;-84
2021/06/05 01:01:27;;;;;;;11.17;10.10;;;16.90;1.00;;;;;;5055760;28;20472;-84
2021/06/05 01:03:54;;;;;;;10.83;9.70;;;16.80;1.00;;;;;;5048371;28;20469;-83
2021/06/05 01:06:24;;;;;;;9.80;8.90;;;16.80;1.00;;;;;;5055823;28;20488;-84
2021/06/05 01:08:59;;;;;;;10.00;9.30;;;16.80;1.00;;;;;;5047375;28;20465;-83
2021/06/05 01:11:33;;;;;;;10.57;9.70;;;16.70;1.00;;;;;;5061701;28;20457;-85
2021/06/05 01:14:03;;;;;;;10.10;9.30;;;16.70;1.00;;;;;;5049114;28;20451;-84
2021/06/05 01:16:31;;;;;;;11.03;10.13;;;16.70;1.00;;;;;;5057115;28;20480;-85
2021/06/05 01:19:03;;;;;;;10.70;9.80;;;16.60;1.00;;;;;;5068101;28;20449;-84
2021/06/05 01:21:41;;;;;;;10.57;9.60;;;16.60;1.00;;;;;;5071991;28;20473;-86
2021/06/05 01:24:17;;;;;;;9.90;9.17;;;16.60;1.00;;;;;;5064241;28;20529;-84
2021/06/05 01:26:53;;;;;;;10.20;9.40;;;16.50;1.00;;;;;;5062413;28;20485;-85
2021/06/05 01:29:22;;;;;;;10.50;9.53;;;16.50;1.00;;;;;;5062217;28;20513;-84
2021/06/05 01:31:53;;;;;;;10.07;9.27;;;16.50;1.00;;;;;;5056958;28;20475;-86
2021/06/05 01:34:22;;;;;;;10.37;9.57;;;16.50;1.00;;;;;;5059546;28;20437;-84
2021/06/05 01:36:51;;;;;;;10.40;9.40;;;16.40;1.00;;;;;;5056166;28;20464;-83
2021/06/05 01:39:21;;;;;;;10.93;10.03;;;16.40;1.00;;;;;;5060086;28;20481;-84
2021/06/05 01:41:51;;;;;;;10.80;9.90;;;16.40;1.00;;;;;;5057370;28;20447;-85
2021/06/05 01:44:19;;;;;;;10.70;9.57;;;16.30;1.00;;;;;;5055491;28;20496;-82
2021/06/05 01:46:48;;;;;;;11.27;10.37;;;16.30;1.00;;;;;;5056072;28;20551;-83
2021/06/05 01:49:16;;;;;;;11.87;10.87;;;16.30;1.00;;;;;;5057880;28;20411;-83
2021/06/05 01:51:48;;;;;;;11.37;10.37;;;16.30;1.00;;;;;;5061458;28;20494;-82
2021/06/05 01:54:20;;;;;;;10.90;9.87;;;16.30;1.00;;;;;;5059342;28;20410;-85
2021/06/05 01:56:53;;;;;;;11.17;10.27;;;16.20;1.00;;;;;;5061959;28;20560;-84
2021/06/05 01:59:21;;;;;;;11.20;10.40;;;16.20;1.00;;;;;;5065686;28;20468;-85
2021/06/05 02:01:48;;;;;;;10.47;9.57;;;16.20;1.00;;;;;;5064915;28;21279;-83
2021/06/05 02:04:15;;;;;;;10.97;10.07;;;16.20;1.00;;;;;;5063402;28;20468;-83
2021/06/05 02:06:45;;;;;;;11.00;10.20;;;16.10;1.00;;;;;;5061229;28;20481;-84
2021/06/05 02:09:14;;;;;;;12.20;11.20;;;16.10;1.00;;;;;;5062889;28;21105;-85
2021/06/05 02:11:45;;;;;;;11.53;10.63;;;16.10;1.00;;;;;;5052682;28;20453;-84
2021/06/05 02:14:17;;;;;;;11.50;10.53;;;16.10;1.00;;;;;;5059655;28;20435;-85
2021/06/05 02:16:47;;;;;;;11.03;10.13;;;16.10;1.00;;;;;;5058518;28;20449;-82
2021/06/05 02:19:19;;;;;;;12.40;11.30;;;16.10;1.00;;;;;;5061264;28;20780;-82
2021/06/05 02:21:47;;;;;;;11.97;11.00;;;16.00;1.00;;;;;;5065232;28;20449;-84
2021/06/05 02:24:17;;;;;;;12.13;10.67;;;16.10;1.00;;;;;;5060642;28;20478;-85
2021/06/05 02:26:45;;;;;;;11.47;10.67;;;16.10;1.00;;;;;;5054439;28;20461;-84
2021/06/05 02:29:17;;;;;;;13.13;12.13;;;16.00;1.00;;;;;;5060500;28;20431;-83
2021/06/05 02:31:43;;;;;;;11.77;10.87;;;16.00;1.00;;;;;;5054544;28;20479;-84
2021/06/05 02:34:13;;;;;;;10.40;9.60;;;16.00;1.00;;;;;;5059404;28;20457;-85
2021/06/05 02:36:42;;;;;;;11.33;10.40;;;16.10;1.00;;;;;;5061812;28;20518;-85
2021/06/05 02:39:09;;;;;;;12.67;11.67;;;16.10;1.00;;;;;;5056870;28;20935;-85
2021/06/05 02:41:35;;;;;;;12.00;11.00;;;16.00;1.00;;;;;;5060523;28;20450;-85
2021/06/05 02:44:02;;;;;;;11.50;10.50;;;16.10;1.00;;;;;;5062829;28;21253;-85
2021/06/05 02:46:32;;;;;;;11.80;10.80;;;16.10;1.00;;;;;;5074131;28;20419;-85
2021/06/05 02:49:01;;;;;;;11.80;10.80;;;16.10;1.00;;;;;;5066376;28;20577;-86
2021/06/05 02:51:33;;;;;;;11.63;10.67;;;16.10;1.00;;;;;;5064602;28;20551;-83
2021/06/05 02:54:01;;;;;;;10.83;9.83;;;16.10;1.00;;;;;;5074364;28;20414;-83
2021/06/05 02:56:28;;;;;;;11.37;10.47;;;16.10;1.00;;;;;;5114985;28;20475;-87
2021/06/05 03:04:07;;;;;;;12.33;11.10;;;16.00;1.00;;;;;;5072736;23;20409;-83
2021/06/05 03:06:34;;;;;;;11.60;10.63;;;16.00;1.00;;;;;;5075413;28;20479;-86
2021/06/05 03:09:01;;;;;;;11.17;10.13;;;15.90;1.00;;;;;;5057167;28;20406;-85
2021/06/05 03:11:33;;;;;;;12.23;11.30;;;15.90;1.00;;;;;;5081352;28;20433;-84
2021/06/05 03:14:02;;;;;;;11.97;10.70;;;15.90;1.00;;;;;;5054594;28;20428;-84
2021/06/05 03:16:37;;;;;;;12.17;11.17;;;15.90;1.00;;;;;;5074061;28;20484;-83
2021/06/05 03:19:39;;;;;;;12.83;11.33;;;15.90;1.00;;;;;;5071795;28;20420;-84
2021/06/05 03:22:13;;;;;;;11.47;10.43;;;15.80;1.00;;;;;;5077692;28;20453;-86
2021/06/05 03:24:40;;;;;;;11.47;10.53;;;15.80;1.00;;;;;;5072212;28;20590;-85
2021/06/05 03:27:06;;;;;;;11.70;10.80;;;15.80;1.00;;;;;;5040952;28;20968;-85
2021/06/05 03:29:32;;;;;;;12.53;11.33;;;15.80;1.00;;;;;;5035907;28;20455;-85
2021/06/05 03:31:59;;;;;;;14.70;13.40;;;15.80;1.00;;;;;;5029584;28;20465;-84
2021/06/05 03:34:25;;;;;;;11.90;10.90;;;15.80;1.00;;;;;;5032197;28;20452;-84
2021/06/05 03:36:52;;;;;;;11.50;10.60;;;15.80;1.00;;;;;;5033662;28;20954;-85
2021/06/05 03:39:19;;;;;;;12.30;11.00;;;15.80;1.00;;;;;;5020075;28;20452;-84
2021/06/05 03:41:46;;;;;;;12.13;11.03;;;15.80;1.00;;;;;;5042102;28;20456;-84
2021/06/05 03:44:12;;;;;;;12.17;11.10;;;15.80;1.00;;;;;;5053924;28;20598;-86
2021/06/05 03:46:38;;;;;;;11.70;10.70;;;15.90;1.00;;;;;;5065154;28;20432;-84
2021/06/05 03:49:05;;;;;;;13.30;12.10;;;15.90;1.00;;;;;;5067320;28;20402;-84
2021/06/05 03:51:32;;;;;;;10.60;9.70;;;15.90;1.00;;;;;;5066796;28;20431;-86
2021/06/05 03:53:59;;;;;;;11.50;10.60;;;15.90;1.00;;;;;;5065943;28;20410;-84
2021/06/05 03:56:26;;;;;;;11.53;10.63;;;15.90;1.00;;;;;;5060228;28;20422;-85
2021/06/05 03:58:53;;;;;;;11.97;10.87;;;15.90;1.00;;;;;;5060528;28;20398;-86
2021/06/05 04:01:21;;;;;;;11.50;10.60;;;15.90;1.00;;;;;;5060287;28;20786;-86
2021/06/05 04:03:47;;;;;;;11.53;10.57;;;16.00;1.00;;;;;;5042168;28;21399;-84
2021/06/05 04:06:20;;;;;;;11.87;10.60;;;16.00;1.00;;;;;;5036204;28;20495;-85
2021/06/05 04:08:47;;;;;;;11.33;10.23;;;16.00;1.00;;;;;;5030231;28;20576;-86
2021/06/05 04:11:13;;;;;;;10.73;9.87;;;16.10;1.00;;;;;;5025541;28;20457;-84
2021/06/05 04:13:41;;;;;;;11.70;10.80;;;16.10;1.00;;;;;;5043567;28;20433;-86
2021/06/05 04:16:07;;;;;;;11.30;10.20;;;16.20;1.00;;;;;;5030076;28;20460;-86
2021/06/05 04:18:35;;;;;;;11.40;10.37;;;16.20;1.00;;;;;;5015909;28;20461;-85
2021/06/05 04:21:04;;;;;;;10.70;9.90;;;16.30;1.00;;;;;;5024929;28;20458;-86
2021/06/05 04:23:30;;;;;;;11.03;10.13;;;16.40;1.00;;;;;;5032799;28;20442;-86
2021/06/05 04:25:56;;;;;;;13.20;12.20;;;16.40;1.00;;;;;;5031995;28;20457;-85
2021/06/05 04:28:25;;;;;;;11.40;10.50;;;16.50;1.00;;;;;;5036079;28;21545;-86
2021/06/05 04:30:53;;;;;;;12.70;10.00;;;16.60;1.00;;;;;;5037198;28;21039;-85
2021/06/05 04:33:22;;;;;;;13.17;12.27;;;16.60;1.00;;;;;;5017873;28;20450;-86
2021/06/05 04:35:48;;;;;;;10.73;9.70;;;16.60;1.00;;;;;;5012317;28;20419;-82
2021/06/05 04:38:15;;;;;;;11.20;10.30;;;16.70;1.00;;;;;;5039062;28;20446;-85
2021/06/05 04:40:43;;;;;;;11.13;10.13;;;16.80;1.00;;;;;;5037001;28;20508;-82
2021/06/05 04:43:10;;;;;;;9.60;8.70;;;16.80;1.00;;;;;;5048734;28;20437;-86
2021/06/05 04:45:37;;;;;;;9.20;8.50;;;16.90;1.00;;;;;;5032410;28;20503;-84
2021/06/05 04:48:05;;;;;;;10.77;9.73;;;17.00;1.00;;;;;;5027501;28;20533;-83
2021/06/05 04:50:34;;;;;;;10.77;9.67;;;17.10;1.00;;;;;;5006749;28;20455;-84
2021/06/05 04:53:01;;;;;;;9.43;8.73;;;17.20;1.00;;;;;;5028451;28;20481;-83
2021/06/05 04:55:27;;;;;;;9.03;8.33;;;17.30;1.00;;;;;;5027353;28;20459;-85
2021/06/05 04:57:55;;;;;;;9.83;8.80;;;17.40;1.00;;;;;;5033254;28;20454;-83
2021/06/05 05:00:26;;;;;;;9.77;8.97;;;17.40;1.00;;;;;;5031909;28;20461;-85
2021/06/05 05:02:52;;;;;;;9.93;9.03;;;17.50;1.00;;;;;;5028869;28;20439;-83
2021/06/05 05:05:20;;;;;;;9.50;8.60;;;17.60;1.00;;;;;;5029241;28;20502;-84
2021/06/05 05:07:48;;;;;;;8.97;8.27;;;17.70;1.00;;;;;;5030731;28;20573;-84
2021/06/05 05:10:15;;;;;;;9.40;8.60;;;17.70;1.00;;;;;;5026504;28;20451;-82
2021/06/05 05:12:41;;;;;;;8.70;7.93;;;17.80;1.00;;;;;;5025679;28;20477;-83
2021/06/05 05:15:08;;;;;;;9.00;8.33;;;17.90;1.00;;;;;;5025104;28;20439;-84
2021/06/05 05:17:36;;;;;;;8.47;7.77;;;18.00;1.00;;;;;;5032285;28;20444;-86
2021/06/05 05:20:06;;;;;;;8.63;7.93;;;18.10;1.00;;;;;;5028481;28;21376;-85
2021/06/05 05:22:35;;;;;;;8.27;7.57;;;18.20;1.00;;;;;;5031929;28;20449;-84
2021/06/05 05:25:01;;;;;;;9.17;8.30;;;18.30;1.00;;;;;;5039836;28;20538;-85
2021/06/05 05:27:27;;;;;;;8.90;8.20;;;18.40;1.00;;;;;;5030776;28;20498;-85
2021/06/05 05:29:53;;;;;;;8.53;7.80;;;18.50;1.00;;;;;;5030849;28;20974;-84
2021/06/05 05:32:19;;;;;;;9.57;7.70;;;18.60;1.00;;;;;;5030636;28;20412;-85
2021/06/05 05:34:46;;;;;;;7.83;7.03;;;18.70;1.00;;;;;;5028014;28;20482;-84
2021/06/05 05:37:12;;;;;;;8.60;7.90;;;18.80;1.00;;;;;;5029803;28;20467;-84
2021/06/05 05:39:39;;;;;;;8.23;7.53;;;18.90;1.00;;;;;;5032398;28;20611;-84
2021/06/05 05:42:06;;;;;;;7.70;7.10;;;19.00;1.00;;;;;;5032126;28;21264;-82
2021/06/05 05:44:33;;;;;;;11.63;10.63;;;19.10;1.00;;;;;;5025941;28;20413;-76
2021/06/05 05:46:59;;;;;;;9.77;8.80;;;19.30;1.00;;;;;;5034308;28;21213;-83
2021/06/05 05:49:25;;;;;;;8.30;7.60;;;19.30;1.00;;;;;;5041528;28;20544;-81
2021/06/05 05:51:52;;;;;;;8.30;7.60;;;19.50;1.00;;;;;;5041932;28;21016;-81
2021/06/05 05:54:18;;;;;;;7.53;6.97;;;19.60;1.00;;;;;;5062135;28;20492;-81
2021/06/05 05:56:45;;;;;;;8.10;7.40;;;19.70;1.00;;;;;;5050541;28;20510;-81
2021/06/05 05:59:15;;;;;;;7.50;6.90;;;19.70;1.00;;;;;;5039360;28;20476;-82
2021/06/05 06:01:41;;;;;;;7.70;7.00;;;19.90;1.00;;;;;;5038619;28;20457;-82
2021/06/05 06:04:07;;;;;;;8.67;7.57;;;20.00;1.00;;;;;;5036607;28;20424;-82
2021/06/05 06:06:33;;;;;;;9.00;7.47;;;20.20;1.00;;;;;;5042020;28;20642;-83
2021/06/05 06:09:00;;;;;;;6.70;6.20;;;20.30;1.00;;;;;;5040168;28;20507;-82
2021/06/05 06:11:27;;;;;;;8.40;6.33;;;20.30;1.00;;;;;;5020565;28;20448;-82
2021/06/05 06:13:55;;;;;;;7.30;6.77;;;20.30;1.00;;;;;;5041894;28;20448;-82
2021/06/05 06:16:22;;;;;;;7.43;6.80;;;20.30;1.00;;;;;;5040513;28;20440;-82
2021/06/05 06:18:49;;;;;;;7.73;7.10;;;20.20;1.00;;;;;;5044633;28;20472;-81
2021/06/05 06:21:17;;;;;;;7.30;6.70;;;20.30;1.00;;;;;;5041985;28;20448;-82
2021/06/05 06:23:44;;;;;;;7.13;6.43;;;20.40;1.00;;;;;;5040367;28;23588;-82
2021/06/05 06:26:14;;;;;;;6.93;6.30;;;20.50;1.00;;;;;;5041307;28;20438;-83
2021/06/05 06:28:41;;;;;;;8.17;7.27;;;20.70;1.00;;;;;;5038818;28;20452;-82
2021/06/05 06:31:14;;;;;;;7.83;6.97;;;20.80;1.00;;;;;;5044467;28;21009;-82
2021/06/05 06:33:41;;;;;;;7.00;6.40;;;20.90;1.00;;;;;;5056199;28;20500;-82
2021/06/05 06:36:09;;;;;;;8.77;7.97;;;20.90;1.00;;;;;;5047997;28;20444;-82
2021/06/05 06:38:39;;;;;;;6.97;6.37;;;21.00;1.00;;;;;;5043914;28;20527;-83
2021/06/05 06:41:08;;;;;;;8.73;7.97;;;21.00;1.00;;;;;;5037202;28;20466;-81
2021/06/05 06:43:35;;;;;;;8.80;7.20;;;21.10;1.00;;;;;;5027203;28;20465;-82
2021/06/05 06:46:04;;;;;;;7.33;6.73;;;21.10;1.00;;;;;;5033316;28;20480;-81
2021/06/05 06:48:32;;;;;;;7.83;7.13;;;21.20;1.00;;;;;;5036731;28;20455;-81
2021/06/05 06:50:58;;;;;;;7.27;6.23;;;21.30;1.00;;;;;;5041095;28;20423;-82
2021/06/05 06:53:25;;;;;;;6.93;6.30;;;21.40;1.00;;;;;;5044095;28;20498;-81
2021/06/05 06:55:51;;;;;;;7.00;5.60;;;21.60;1.00;;;;;;5041219;28;20459;-82
2021/06/05 06:58:18;;;;;;;6.00;5.40;;;21.70;1.00;;;;;;5039175;28;20434;-82
2021/06/05 07:00:46;;;;;;;8.97;5.87;;;21.80;1.00;;;;;;5036131;28;20438;-81
2021/06/05 07:03:14;;;;;;;7.93;5.83;;;21.90;1.00;;;;;;5044398;28;20450;-81
2021/06/05 07:05:42;;;;;;;5.60;5.20;;;21.90;1.00;;;;;;5042631;28;20456;-82
2021/06/05 07:08:15;;;;;;;7.27;6.57;;;22.00;1.00;;;;;;5059555;28;20547;-81
2021/06/05 07:10:42;;;;;;;7.03;6.43;;;22.10;1.00;;;;;;5061679;28;20478;-80
2021/06/05 07:13:08;;;;;;;6.37;5.83;;;22.30;1.00;;;;;;5063974;28;20535;-80
2021/06/05 07:15:36;;;;;;;6.73;6.13;;;22.40;1.00;;;;;;5059241;28;20391;-80
2021/06/05 07:18:03;;;;;;;5.83;5.30;;;22.50;1.00;;;;;;5054289;28;20438;-76
2021/06/05 07:20:30;;;;;;;6.10;5.50;;;22.50;1.00;;;;;;5040969;28;20463;-77
2021/06/05 07:22:59;;;;;;;6.60;6.03;;;22.70;1.00;;;;;;5050816;28;20463;-81
2021/06/05 07:25:27;;;;;;;5.70;5.27;;;22.80;1.00;;;;;;5045474;28;20453;-82
2021/06/05 07:27:53;;;;;;;6.33;5.77;;;23.00;1.00;;;;;;5025906;28;20533;-81
2021/06/05 07:30:19;;;;;;;6.00;5.50;;;23.20;1.00;;;;;;5006667;28;20447;-80
2021/06/05 07:32:45;;;;;;;5.33;4.93;;;23.20;1.00;;;;;;5029441;28;20496;-81
2021/06/05 07:35:12;;;;;;;4.90;4.60;;;23.20;1.00;;;;;;5027840;28;21535;-83
2021/06/05 07:37:38;;;;;;;5.00;4.60;;;23.20;1.00;;;;;;5031018;28;20419;-82
2021/06/05 07:40:09;;;;;;;5.90;5.30;;;23.30;1.00;;;;;;5031104;28;20460;-82
2021/06/05 07:42:36;;;;;;;5.03;4.73;;;23.50;1.00;;;;;;5039230;28;20468;-80
2021/06/05 07:45:06;;;;;;;5.03;4.63;;;23.50;1.00;;;;;;5040347;28;20514;-81
2021/06/05 07:47:32;;;;;;;5.87;5.37;;;23.60;1.00;;;;;;5029269;28;22740;-82
2021/06/05 07:49:59;;;;;;;5.70;5.20;;;23.70;1.00;;;;;;5034835;28;20446;-80
2021/06/05 07:52:25;;;;;;;5.57;5.17;;;23.80;1.00;;;;;;5038649;28;20515;-81
2021/06/05 07:54:53;;;;;;;5.40;5.00;;;23.80;1.00;;;;;;5034113;28;20467;-81
2021/06/05 07:57:21;;;;;;;5.33;4.83;;;23.80;1.00;;;;;;5031105;28;20784;-81
2021/06/05 07:59:47;;;;;;;5.40;5.00;;;24.00;1.00;;;;;;5037936;28;20522;-81
2021/06/05 08:02:14;;;;;;;6.07;5.37;;;23.90;1.00;;;;;;5024875;28;20565;-81
2021/06/05 08:04:41;;;;;;;5.73;5.23;;;24.00;1.00;;;;;;5033360;28;20410;-83
2021/06/05 08:07:07;;;;;;;5.80;5.10;;;24.00;1.00;;;;;;5041945;28;20512;-83
2021/06/05 08:09:34;;;;;;;5.23;4.83;;;24.10;1.00;;;;;;5048131;28;20445;-81
2021/06/05 08:12:01;;;;;;;4.70;4.30;;;24.00;1.00;;;;;;5044238;28;20530;-81
2021/06/05 08:14:30;;;;;;;6.40;5.43;;;24.10;1.00;;;;;;5042846;28;20464;-79
2021/06/05 08:16:56;;;;;;;7.00;6.40;;;24.20;1.00;;;;;;5042022;28;20510;-78
2021/06/05 08:19:23;;;;;;;5.20;4.70;;;24.30;1.00;;;;;;5043122;28;20436;-80
2021/06/05 08:21:49;;;;;;;5.00;4.70;;;24.30;1.00;;;;;;5041955;28;20446;-81
2021/06/05 08:24:18;;;;;;;6.60;5.20;;;24.50;1.00;;;;;;5040340;28;20457;-84
2021/06/05 08:26:46;;;;;;;5.53;5.10;;;24.70;1.00;;;;;;5038660;28;20430;-83
2021/06/05 08:29:13;;;;;;;7.40;5.30;;;24.90;1.00;;;;;;5043232;28;20449;-80
2021/06/05 08:31:41;;;;;;;5.40;4.90;;;25.00;1.00;;;;;;5045657;28;20521;-82
2021/06/05 08:34:07;;;;;;;5.50;5.10;;;25.10;1.00;;;;;;5048574;28;20468;-81
2021/06/05 08:36:36;;;;;;;4.90;4.60;;;25.20;1.00;;;;;;5041065;28;20501;-81
2021/06/05 08:39:04;;;;;;;5.10;4.70;;;25.30;1.00;;;;;;5042441;28;21143;-81
2021/06/05 08:41:36;;;;;;;5.07;4.67;;;25.40;1.00;;;;;;5045801;28;20467;-81
2021/06/05 08:44:07;;;;;;;5.50;5.10;;;25.50;1.00;;;;;;5044201;28;20440;-82
2021/06/05 08:46:38;;;;;;;5.63;5.13;;;25.60;1.00;;;;;;5038470;28;20449;-81
2021/06/05 08:49:14;;;;;;;5.27;4.70;;;25.60;1.00;;;;;;5039952;28;20435;-82
2021/06/05 08:51:53;;;;;;;5.47;4.87;;;25.50;1.00;;;;;;5046926;28;20469;-82
2021/06/05 08:54:31;;;;;;;5.37;4.97;;;25.70;1.00;;;;;;5046107;28;20582;-80
2021/06/05 08:57:06;;;;;;;5.70;5.13;;;25.90;1.00;;;;;;5056513;28;20445;-79
2021/06/05 08:59:34;;;;;;;6.93;4.77;;;26.00;1.00;;;;;;5055597;28;20477;-82
2021/06/05 09:02:00;;;;;;;4.93;4.63;;;26.10;1.00;;;;;;5054605;28;20539;-80
2021/06/05 09:04:30;;;;;;;5.40;5.00;;;26.10;1.00;;;;;;5041803;28;21056;-81
2021/06/05 09:06:59;;;;;;;5.63;5.13;;;26.20;1.00;;;;;;5041169;28;20600;-82
2021/06/05 09:09:31;;;;;;;7.13;5.13;;;26.30;1.00;;;;;;5036980;28;20428;-81
2021/06/05 09:11:58;;;;;;;5.40;4.90;;;26.50;1.00;;;;;;5039070;28;20439;-80
2021/06/05 09:14:24;;;;;;;5.40;5.00;;;26.80;1.00;;;;;;5036118;28;20463;-83
2021/06/05 09:16:51;;;;;;;5.60;5.20;;;27.00;1.00;;;;;;5020998;28;20459;-81
2021/06/05 09:19:27;;;;;;;4.60;4.20;;;27.30;1.00;;;;;;5039706;28;20452;-81
2021/06/05 09:22:12;;;;;;;4.83;4.43;;;27.40;1.00;;;;;;5046831;28;20554;-81
2021/06/05 09:24:41;;;;;;;5.00;4.70;;;27.60;1.00;;;;;;5043079;28;20454;-82
2021/06/05 09:27:12;;;;;;;5.23;4.83;;;27.60;1.00;;;;;;5033449;28;21906;-83
2021/06/05 09:29:48;;;;;;;5.23;4.87;;;27.70;1.00;;;;;;5040251;28;20562;-81
2021/06/05 09:32:17;;;;;;;5.50;4.90;;;27.80;1.00;;;;;;5040310;28;20445;-81
2021/06/05 09:34:46;;;;;;;5.70;5.20;;;27.80;1.00;;;;;;5042165;28;20460;-81
2021/06/05 09:37:33;;;;;;;5.23;4.73;;;28.10;1.00;;;;;;5042295;28;20458;-81
2021/06/05 09:40:08;;;;;;;5.63;5.13;;;29.10;1.00;;;;;;5046670;28;20491;-83
2021/06/05 09:42:39;;;;;;;4.90;4.50;;;30.40;1.00;;;;;;5042398;28;20505;-82
2021/06/05 09:45:23;;;;;;;5.50;5.00;;;30.90;1.00;;;;;;5044526;28;20469;-81
2021/06/05 09:47:50;;;;;;;6.27;5.03;;;31.30;1.00;;;;;;5044046;28;20989;-82
2021/06/05 09:50:23;;;;;;;5.23;4.43;;;31.90;1.00;;;;;;5043424;28;20456;-80
2021/06/05 09:52:52;;;;;;;5.13;4.63;;;32.30;1.00;;;;;;5044573;28;20449;-81
2021/06/05 09:55:34;;;;;;;5.60;4.53;;;32.70;1.00;;;;;;5042417;28;20562;-81
2021/06/05 09:58:02;;;;;;;5.40;4.90;;;33.30;1.00;;;;;;5045653;28;20464;-82
2021/06/05 10:00:32;;;;;;;5.10;4.70;;;34.20;1.00;;;;;;5039794;28;20477;-81
2021/06/05 10:03:27;;;;;;;4.60;4.30;;;34.10;1.00;;;;;;5049206;28;20472;-83
2021/06/05 10:05:54;;;;;;;4.80;4.50;;;33.10;1.00;;;;;;5044216;28;20758;-79
2021/06/05 10:08:27;;;;;;;5.30;4.90;;;33.10;1.00;;;;;;5050342;28;20440;-81
2021/06/05 10:11:00;;;;;;;4.93;4.63;;;33.80;1.00;;;;;;5020280;28;20435;-81
2021/06/05 10:13:30;;;;;;;4.33;4.03;;;34.40;1.00;;;;;;5046297;28;20412;-80
2021/06/05 10:16:00;;;;;;;5.13;4.53;;;35.00;1.00;;;;;;5044900;28;21606;-81
2021/06/05 10:18:32;;;;;;;4.33;4.03;;;34.50;1.00;;;;;;5039011;28;20452;-81
2021/06/05 10:21:04;;;;;;;4.70;4.30;;;34.90;1.00;;;;;;5043777;28;20424;-81
2021/06/05 10:23:37;;;;;;;4.40;4.10;;;34.60;1.00;;;;;;5040733;28;20473;-80
2021/06/05 10:26:06;;;;;;;4.57;4.27;;;34.80;1.00;;;;;;5050336;28;20452;-82
2021/06/05 10:28:36;;;;;;;5.27;4.87;;;35.00;1.00;;;;;;5046961;28;20453;-82
2021/06/05 10:31:07;;;;;;;6.30;5.00;;;35.10;1.00;;;;;;5043685;28;21797;-82
2021/06/05 10:33:38;;;;;;;4.87;4.40;;;35.90;1.00;;;;;;5047662;28;20419;-82
2021/06/05 10:36:09;;;;;;;4.87;4.57;;;36.90;1.00;;;;;;5041898;28;20396;-79
2021/06/05 10:38:42;;;;;;;4.80;4.43;;;36.80;1.00;;;;;;5041297;28;20443;-79
2021/06/05 10:41:13;;;;;;;4.70;4.40;;;36.50;1.00;;;;;;5039105;28;20531;-82
2021/06/05 10:43:40;;;;;;;4.90;4.60;;;36.80;1.00;;;;;;5041954;28;21120;-81
2021/06/05 10:46:22;;;;;;;5.23;4.73;;;36.70;1.00;;;;;;5043584;28;21979;-82
2021/06/05 10:48:50;;;;;;;5.20;4.77;;;37.00;1.00;;;;;;5041708;28;20586;-81
2021/06/05 10:51:22;;;;;;;4.47;4.17;;;37.10;1.00;;;;;;5045180;28;21272;-82
2021/06/05 10:54:00;;;;;;;5.77;4.63;;;37.30;1.00;;;;;;5044004;28;20553;-80
2021/06/05 10:56:35;;;;;;;5.10;4.70;;;37.80;1.00;;;;;;5043226;28;20440;-80
2021/06/05 10:59:04;;;;;;;4.87;4.47;;;38.20;1.00;;;;;;5044862;28;20929;-81
2021/06/05 11:01:47;;;;;;;5.80;5.30;;;38.70;1.00;;;;;;5039614;28;21244;-81
2021/06/05 11:04:39;;;;;;;4.20;3.90;;;38.80;1.00;;;;;;5042947;28;20440;-81
2021/06/05 11:07:23;;;;;;;5.90;4.87;;;39.00;1.00;;;;;;5037454;28;20550;-81
2021/06/05 11:09:52;;;;;;;4.90;4.50;;;39.10;1.00;;;;;;5051205;28;20576;-80
2021/06/05 11:12:45;;;;;;;4.80;4.40;;;38.90;1.00;;;;;;5051603;28;20464;-81
2021/06/05 11:15:47;;;;;;;4.00;3.80;;;38.90;1.00;;;;;;5023742;28;20955;-80
2021/06/05 11:18:24;;;;;;;5.27;4.87;;;39.10;1.00;;;;;;5036642;28;20488;-80
2021/06/05 11:20:51;;;;;;;4.80;4.50;;;39.30;1.00;;;;;;5043895;28;20519;-82
2021/06/05 11:23:31;;;;;;;5.00;4.50;;;39.30;1.00;;;;;;5046457;28;20471;-82
2021/06/05 11:26:39;;;;;;;4.57;4.17;;;39.30;1.00;;;;;;5044324;28;20479;-80
2021/06/05 11:29:26;;;;;;;5.70;5.10;;;39.20;1.00;;;;;;5057899;28;20411;-80
2021/06/05 11:31:54;;;;;;;4.47;4.10;;;39.40;1.00;;;;;;5060914;28;20459;-81
2021/06/05 11:34:55;;;;;;;4.10;3.80;;;40.10;1.00;;;;;;5058527;28;20507;-80
2021/06/05 11:37:54;;;;;;;4.10;3.90;;;39.50;1.00;;;;;;5058655;28;20575;-78
2021/06/05 11:40:53;;;;;;;4.50;4.20;;;39.30;1.00;;;;;;4973080;28;20607;-80
2021/06/05 11:43:51;;;;;;;5.13;4.67;;;39.50;1.00;;;;;;5055746;28;20431;-75
2021/06/05 11:46:57;;;;;;;4.30;3.90;;;40.30;1.00;;;;;;4948226;28;20448;-78
2021/06/05 11:49:45;;;;;;;4.23;4.00;;;40.20;1.00;;;;;;5041086;28;20980;-78
2021/06/05 11:52:49;;;;;;;5.00;4.17;;;38.90;1.00;;;;;;5037306;28;20469;-79
2021/06/05 11:55:21;;;;;;;5.57;4.43;;;39.50;1.00;;;;;;5034555;28;20460;-81
2021/06/05 11:58:00;;;;;;;4.00;3.80;;;39.60;1.00;;;;;;5042403;28;20433;-79
2021/06/05 12:00:30;;;;;;;4.50;4.20;;;39.80;1.00;;;;;;5044884;28;20448;-79
2021/06/05 12:03:00;;;;;;;3.97;3.70;;;39.20;1.00;;;;;;5036755;28;20472;-78
2021/06/05 12:05:29;;;;;;;7.60;5.43;;;39.40;1.00;;;;;;5037956;28;21265;-79
2021/06/05 12:07:55;;;;;;;4.73;4.40;;;40.20;1.00;;;;;;5035882;28;20436;-79
2021/06/05 12:10:35;;;;;;;4.03;3.73;;;40.20;1.00;;;;;;5036235;28;20457;-79
2021/06/05 12:13:03;;;;;;;3.87;3.67;;;41.00;1.00;;;;;;5037820;28;20554;-79
2021/06/05 12:15:37;;;;;;;3.93;3.63;;;41.70;1.00;;;;;;5032701;28;20456;-81
2021/06/05 12:18:07;;;;;;;4.47;3.67;;;41.40;1.00;;;;;;5035909;28;20412;-78
2021/06/05 12:20:49;;;;;;;5.30;3.57;;;40.50;1.00;;;;;;5034000;28;20472;-79
2021/06/05 12:23:25;;;;;;;4.30;4.00;;;40.50;1.00;;;;;;5033735;28;20467;-80
2021/06/05 12:25:59;;;;;;;4.73;4.30;;;40.80;1.00;;;;;;5032735;28;20448;-81
2021/06/05 12:28:28;;;;;;;4.80;4.50;;;40.90;1.00;;;;;;5035577;28;21016;-78
2021/06/05 12:31:08;;;;;;;4.13;3.83;;;41.20;1.00;;;;;;5030988;28;20491;-78
2021/06/05 12:33:35;;;;;;;4.00;3.70;;;41.20;1.00;;;;;;5038778;28;20535;-79
2021/06/05 12:36:15;;;;;;;4.13;3.63;;;41.40;1.00;;;;;;5019190;28;20476;-80
2021/06/05 12:38:44;;;;;;;4.67;4.00;;;41.60;1.00;;;;;;5040220;28;20455;-79
2021/06/05 12:41:17;;;;;;;3.73;3.53;;;41.10;1.00;;;;;;5042619;28;20476;-81
2021/06/05 12:43:44;;;;;;;3.63;3.33;;;40.90;1.00;;;;;;5027133;28;20431;-80
2021/06/05 12:46:17;;;;;;;3.33;3.13;;;41.00;1.00;;;;;;5033708;28;23743;-81
2021/06/05 12:48:44;;;;;;;5.03;3.60;;;40.80;1.00;;;;;;5043049;28;20416;-79
2021/06/05 12:51:15;;;;;;;3.53;3.33;;;41.00;1.00;;;;;;5034237;28;20472;-83
2021/06/05 12:53:41;;;;;;;3.63;3.13;;;41.70;1.00;;;;;;5041946;28;20940;-81
2021/06/05 12:56:29;;;;;;;4.27;3.97;;;41.90;1.00;;;;;;5042620;28;21284;-82
2021/06/05 12:58:57;;;;;;;4.10;3.70;;;41.00;1.00;;;;;;5040927;28;20540;-81
2021/06/05 13:01:33;;;;;;;5.27;4.87;;;40.00;1.00;;;;;;5033645;28;20429;-82
2021/06/05 13:04:00;;;;;;;3.90;3.60;;;39.40;1.00;;;;;;5046462;28;20451;-81
2021/06/05 13:06:29;;;;;;;8.10;7.37;;;40.00;1.00;;;;;;5048036;28;20977;-80
2021/06/05 13:09:14;;;;;;;4.53;3.70;;;41.00;1.00;;;;;;5035553;28;20456;-78
2021/06/05 13:11:43;;;;;;;3.63;3.43;;;41.80;1.00;;;;;;5033314;28;21020;-80
2021/06/05 13:14:22;;;;;;;7.03;6.53;;;41.60;1.00;;;;;;5034266;28;20548;-79